createdAt,value
2018-11-10T00:00:05.150Z,79.18
2018-11-10T00:02:34.028Z,78.90
2018-11-10T00:05:02.946Z,78.92
2018-11-10T00:07:33.276Z,81.13
2018-11-10T00:10:02.199Z,80.75
2018-11-10T00:12:31.129Z,80.29
2018-11-10T00:15:00.031Z,80.60
2018-11-10T00:17:28.846Z,79.58
2018-11-10T00:19:57.708Z,79.42
2018-11-10T00:22:26.710Z,79.36
2018-11-10T00:24:55.627Z,79.64
2018-11-10T00:27:24.466Z,80.45
2018-11-10T00:29:53.425Z,80.55
2018-11-10T00:32:22.282Z,80.42
2018-11-10T00:34:51.222Z,79.62
2018-11-10T00:37:20.191Z,80.34
2018-11-10T00:39:49.054Z,79.70
2018-11-10T00:42:18.032Z,79.37
2018-11-10T00:44:46.951Z,78.89
2018-11-10T00:47:15.825Z,78.90
2018-11-10T00:49:44.822Z,78.98
2018-11-10T00:52:13.876Z,79.38
2018-11-10T00:54:42.889Z,79.87
2018-11-10T00:57:13.525Z,78.90
2018-11-10T00:59:42.492Z,78.38
2018-11-10T01:02:11.475Z,78.40
2018-11-10T01:04:40.431Z,77.95
2018-11-10T01:07:09.389Z,77.24
2018-11-10T01:09:38.240Z,77.12
2018-11-10T01:12:07.431Z,78.16
2018-11-10T01:14:36.725Z,78.49
2018-11-10T01:17:05.910Z,78.40
2018-11-10T01:19:34.875Z,78.12
2018-11-10T01:22:03.858Z,77.48
2018-11-10T01:24:32.801Z,77.28
2018-11-10T01:27:01.688Z,77.74
2018-11-10T01:29:30.603Z,77.50
2018-11-10T01:31:59.470Z,77.36
2018-11-10T01:34:28.385Z,76.97
2018-11-10T01:36:57.250Z,77.13
2018-11-10T01:39:26.067Z,77.11
2018-11-10T01:41:55.131Z,78.32
2018-11-10T01:44:24.084Z,78.09
2018-11-10T01:46:52.927Z,79.02
2018-11-10T01:49:21.847Z,78.46
2018-11-10T01:51:50.944Z,78.72
2018-11-10T01:54:20.596Z,78.86
2018-11-10T01:56:49.492Z,78.12
2018-11-10T01:59:18.447Z,78.32
2018-11-10T02:01:47.317Z,77.31
2018-11-10T02:04:16.194Z,77.86
2018-11-10T02:06:45.230Z,76.73
2018-11-10T02:09:14.201Z,77.52
2018-11-10T02:11:43.117Z,76.96
2018-11-10T02:14:12.096Z,76.72
2018-11-10T02:16:41.000Z,76.32
2018-11-10T02:19:09.901Z,76.69
2018-11-10T02:21:38.810Z,77.29
2018-11-10T02:24:07.757Z,76.79
2018-11-10T02:26:36.751Z,76.21
2018-11-10T02:29:05.718Z,76.14
2018-11-10T02:31:34.664Z,76.58
2018-11-10T02:34:03.607Z,77.14
2018-11-10T02:36:32.518Z,77.29
2018-11-10T02:39:01.401Z,77.65
2018-11-10T02:41:30.379Z,77.91
2018-11-10T02:43:59.270Z,76.87
2018-11-10T02:46:28.149Z,77.03
2018-11-10T02:48:57.118Z,77.54
2018-11-10T02:51:26.011Z,78.39
2018-11-10T02:53:54.878Z,78.73
2018-11-10T02:56:23.793Z,78.57
2018-11-10T02:58:52.731Z,79.97
2018-11-10T03:01:21.658Z,78.91
2018-11-10T03:03:50.662Z,78.95
2018-11-10T03:06:19.491Z,78.70
2018-11-10T03:08:48.418Z,78.32
2018-11-10T03:11:17.296Z,78.92
2018-11-10T03:13:46.118Z,79.21
2018-11-10T03:16:15.064Z,79.21
2018-11-10T03:18:43.952Z,78.71
2018-11-10T03:21:12.825Z,77.65
2018-11-10T03:23:41.754Z,78.36
2018-11-10T03:26:10.815Z,77.92
2018-11-10T03:28:39.751Z,78.17
2018-11-10T03:31:08.675Z,78.05
2018-11-10T03:33:37.571Z,78.94
2018-11-10T03:36:06.510Z,78.87
2018-11-10T03:38:35.405Z,79.10
2018-11-10T03:41:04.380Z,79.85
2018-11-10T03:43:33.399Z,80.27
2018-11-10T03:46:02.251Z,80.92
2018-11-10T03:48:31.291Z,80.16
2018-11-10T03:51:00.205Z,79.35
2018-11-10T03:53:29.090Z,80.40
2018-11-10T03:55:58.036Z,80.55
2018-11-10T03:58:27.105Z,80.91
2018-11-10T04:00:56.014Z,81.20
2018-11-10T04:03:24.955Z,80.11
2018-11-10T04:05:53.790Z,80.14
2018-11-10T04:08:22.743Z,80.72
2018-11-10T04:10:51.653Z,80.02
2018-11-10T04:13:20.602Z,79.94
2018-11-10T04:15:49.526Z,80.68
2018-11-10T04:18:18.465Z,81.12
2018-11-10T04:20:47.332Z,81.50
2018-11-10T04:23:16.219Z,81.13
2018-11-10T04:25:45.111Z,81.42
2018-11-10T04:28:14.076Z,82.18
2018-11-10T04:30:43.023Z,83.14
2018-11-10T04:33:11.998Z,82.89
2018-11-10T04:35:40.867Z,84.26
2018-11-10T04:38:09.766Z,84.95
2018-11-10T04:40:38.709Z,83.69
2018-11-10T04:43:07.626Z,82.38
2018-11-10T04:45:36.564Z,82.74
2018-11-10T04:48:05.498Z,83.70
2018-11-10T04:50:34.470Z,84.65
2018-11-10T04:53:03.299Z,84.47
2018-11-10T04:55:32.188Z,84.90
2018-11-10T04:58:01.062Z,84.31
2018-11-10T05:00:29.934Z,84.17
2018-11-10T05:02:58.814Z,82.40
2018-11-10T05:05:27.659Z,82.56
2018-11-10T05:07:56.572Z,82.35
2018-11-10T05:10:25.418Z,82.21
2018-11-10T05:12:54.338Z,81.52
2018-11-10T05:15:23.294Z,81.54
2018-11-10T05:17:52.138Z,81.80
2018-11-10T05:20:21.097Z,81.67
2018-11-10T05:22:50.048Z,81.16
2018-11-10T05:25:18.912Z,81.25
2018-11-10T05:27:47.853Z,80.93
2018-11-10T05:30:16.817Z,80.94
2018-11-10T05:32:45.634Z,80.77
2018-11-10T05:35:14.543Z,80.33
2018-11-10T05:37:43.507Z,80.24
2018-11-10T05:40:12.787Z,81.30
2018-11-10T05:42:41.922Z,81.52
2018-11-10T05:45:12.113Z,81.38
2018-11-10T05:47:41.016Z,80.98
2018-11-10T05:50:10.282Z,80.54
2018-11-10T05:52:39.130Z,81.50
2018-11-10T05:55:08.753Z,81.33
2018-11-10T05:57:43.178Z,81.83
2018-11-10T06:00:13.526Z,81.73
2018-11-10T06:02:43.005Z,81.68
2018-11-10T06:05:12.556Z,81.82
2018-11-10T06:07:41.470Z,82.19
2018-11-10T06:10:11.680Z,82.01
2018-11-10T06:12:40.469Z,82.33
2018-11-10T06:15:10.123Z,83.25
2018-11-10T06:17:39.116Z,83.59
2018-11-10T06:20:09.865Z,83.57
2018-11-10T06:22:38.770Z,82.20
2018-11-10T06:25:08.534Z,81.49
2018-11-10T06:27:37.406Z,81.47
2018-11-10T06:30:08.278Z,79.91
2018-11-10T06:32:37.689Z,80.69
2018-11-10T06:35:06.744Z,78.98
2018-11-10T06:37:35.708Z,78.63
2018-11-10T06:40:05.161Z,79.00
2018-11-10T06:42:34.022Z,79.11
2018-11-10T06:45:03.325Z,79.08
2018-11-10T06:47:32.275Z,79.25
2018-11-10T06:50:01.215Z,78.83
2018-11-10T06:52:30.102Z,78.62
2018-11-10T06:54:58.963Z,78.36
2018-11-10T06:57:27.842Z,77.40
2018-11-10T06:59:56.694Z,76.76
2018-11-10T07:02:25.674Z,76.67
2018-11-10T07:04:54.528Z,76.71
2018-11-10T07:07:23.518Z,78.39
2018-11-10T07:09:52.394Z,77.63
2018-11-10T07:12:21.310Z,76.80
2018-11-10T07:14:50.162Z,75.91
2018-11-10T07:17:19.094Z,75.69
2018-11-10T07:19:47.958Z,74.49
2018-11-10T07:22:16.846Z,74.30
2018-11-10T07:24:45.895Z,73.37
2018-11-10T07:27:14.735Z,72.62
2018-11-10T07:29:43.589Z,71.71
2018-11-10T07:32:12.542Z,71.43
2018-11-10T07:34:41.443Z,71.35
2018-11-10T07:37:10.408Z,74.45
2018-11-10T07:39:39.519Z,74.26
2018-11-10T07:42:08.555Z,72.54
2018-11-10T07:44:37.499Z,72.39
2018-11-10T07:47:06.791Z,72.43
2018-11-10T07:49:37.020Z,71.91
2018-11-10T07:52:06.314Z,71.79
2018-11-10T07:54:35.249Z,73.21
2018-11-10T07:57:04.180Z,73.13
2018-11-10T07:59:33.044Z,73.05
2018-11-10T08:02:01.945Z,72.53
2018-11-10T08:04:31.835Z,71.58
2018-11-10T08:07:00.802Z,70.40
2018-11-10T08:09:29.663Z,69.79
2018-11-10T08:12:00.071Z,70.40
2018-11-10T08:14:28.797Z,70.34
2018-11-10T08:16:57.690Z,70.71
2018-11-10T08:19:26.605Z,70.80
2018-11-10T08:21:55.526Z,70.96
2018-11-10T08:24:24.471Z,71.14
2018-11-10T08:26:53.340Z,71.49
2018-11-10T08:29:22.303Z,70.99
2018-11-10T08:31:52.679Z,70.15
2018-11-10T08:34:21.522Z,69.67
2018-11-10T08:36:50.413Z,69.80
2018-11-10T08:39:19.442Z,69.49
2018-11-10T08:41:48.419Z,69.71
2018-11-10T08:44:17.404Z,69.79
2018-11-10T08:46:46.625Z,69.19
2018-11-10T08:49:16.068Z,68.79
2018-11-10T08:51:47.656Z,68.32
2018-11-10T08:54:16.616Z,68.42
2018-11-10T08:56:45.542Z,67.89
2018-11-10T08:59:14.481Z,66.90
2018-11-10T09:01:43.506Z,66.09
2018-11-10T09:04:12.355Z,66.44
2018-11-10T09:06:41.323Z,65.20
2018-11-10T09:09:11.311Z,64.93
2018-11-10T09:11:40.204Z,65.68
2018-11-10T09:14:09.404Z,65.01
2018-11-10T09:16:38.327Z,65.78
2018-11-10T09:19:07.308Z,64.67
2018-11-10T09:21:36.343Z,64.58
2018-11-10T09:24:05.590Z,65.61
2018-11-10T09:26:34.532Z,65.49
2018-11-10T09:29:03.416Z,65.20
2018-11-10T09:31:32.264Z,64.68
2018-11-10T09:34:01.181Z,65.17
2018-11-10T09:36:30.242Z,65.19
2018-11-10T09:38:59.087Z,65.14
2018-11-10T09:41:28.107Z,66.38
2018-11-10T09:43:57.002Z,66.18
2018-11-10T09:46:26.068Z,66.78
2018-11-10T09:48:54.938Z,66.71
2018-11-10T09:51:23.893Z,66.88
2018-11-10T09:53:52.917Z,66.52
2018-11-10T09:56:22.040Z,67.13
2018-11-10T09:58:50.932Z,65.99
2018-11-10T10:01:20.067Z,66.36
2018-11-10T10:03:51.296Z,65.77
2018-11-10T10:06:20.315Z,65.81
2018-11-10T10:08:49.267Z,66.15
2018-11-10T10:11:18.224Z,65.33
2018-11-10T10:13:47.155Z,65.53
2018-11-10T10:16:16.437Z,65.73
2018-11-10T10:18:45.276Z,63.88
2018-11-10T10:21:14.157Z,65.45
2018-11-10T10:23:43.079Z,65.54
2018-11-10T10:26:12.007Z,65.96
2018-11-10T10:28:41.200Z,64.42
2018-11-10T10:31:10.099Z,64.13
2018-11-10T10:33:39.025Z,64.07
2018-11-10T10:36:07.972Z,63.78
2018-11-10T10:38:37.247Z,62.71
2018-11-10T10:41:06.540Z,62.48
2018-11-10T10:43:35.462Z,62.07
2018-11-10T10:46:04.585Z,62.74
2018-11-10T10:48:33.651Z,62.95
2018-11-10T10:51:02.619Z,62.41
2018-11-10T10:53:31.496Z,61.78
2018-11-10T10:56:01.940Z,60.87
2018-11-10T10:58:30.942Z,61.02
2018-11-10T11:01:04.871Z,61.74
2018-11-10T11:03:38.923Z,60.97
2018-11-10T11:06:07.865Z,60.23
2018-11-10T11:08:36.751Z,60.17
2018-11-10T11:11:05.886Z,60.82
2018-11-10T11:13:34.774Z,59.62
2018-11-10T11:16:03.747Z,59.46
2018-11-10T11:18:32.709Z,60.67
2018-11-10T11:21:01.584Z,60.70
2018-11-10T11:23:30.879Z,61.42
2018-11-10T11:25:59.834Z,61.95
2018-11-10T11:28:28.721Z,62.37
2018-11-10T11:30:57.734Z,62.76
2018-11-10T11:33:26.731Z,62.98
2018-11-10T11:35:55.687Z,62.94
2018-11-10T11:38:24.648Z,62.93
2018-11-10T11:40:53.570Z,62.75
2018-11-10T11:43:22.527Z,61.73
2018-11-10T11:45:52.608Z,61.40
2018-11-10T11:48:21.574Z,61.79
2018-11-10T11:50:50.546Z,61.64
2018-11-10T11:53:20.806Z,62.08
2018-11-10T11:55:49.692Z,61.60
2018-11-10T11:58:18.674Z,61.56
2018-11-10T12:00:47.479Z,62.55
2018-11-10T12:03:16.435Z,62.89
2018-11-10T12:05:45.299Z,62.03
2018-11-10T12:08:14.261Z,61.75
2018-11-10T12:10:43.113Z,62.06
2018-11-10T12:13:12.043Z,61.76
2018-11-10T12:15:40.987Z,62.44
2018-11-10T12:18:09.895Z,62.76
2018-11-10T12:20:38.824Z,62.03
2018-11-10T12:23:09.169Z,62.34
2018-11-10T12:25:38.052Z,62.53
2018-11-10T12:28:06.944Z,62.36
2018-11-10T12:30:35.923Z,62.88
2018-11-10T12:33:04.806Z,63.31
2018-11-10T12:35:33.709Z,63.03
2018-11-10T12:38:04.127Z,63.48
2018-11-10T12:40:33.064Z,63.96
2018-11-10T12:43:01.978Z,63.95
2018-11-10T12:45:32.111Z,64.96
2018-11-10T12:48:01.052Z,65.09
2018-11-10T12:50:29.971Z,65.17
2018-11-10T12:52:58.939Z,65.75
2018-11-10T12:55:27.874Z,65.52
2018-11-10T12:57:56.879Z,65.52
2018-11-10T13:00:27.282Z,67.00
2018-11-10T13:02:56.180Z,66.15
2018-11-10T13:05:25.070Z,66.53
2018-11-10T13:07:54.085Z,66.53
2018-11-10T13:10:23.026Z,65.73
2018-11-10T13:12:52.022Z,65.61
2018-11-10T13:15:22.126Z,65.47
2018-11-10T13:17:51.059Z,66.16
2018-11-10T13:20:19.959Z,66.21
2018-11-10T13:22:48.913Z,65.73
2018-11-10T13:25:17.847Z,66.23
2018-11-10T13:27:46.743Z,66.50
2018-11-10T13:30:16.219Z,65.90
2018-11-10T13:32:45.135Z,66.44
2018-11-10T13:35:13.992Z,66.50
2018-11-10T13:37:42.930Z,65.79
2018-11-10T13:40:12.196Z,66.43
2018-11-10T13:42:41.076Z,66.49
2018-11-10T13:45:11.533Z,67.15
2018-11-10T13:47:40.487Z,65.42
2018-11-10T13:50:10.751Z,62.99
2018-11-10T13:52:40.934Z,62.20
2018-11-10T13:55:09.635Z,60.98
2018-11-10T13:57:38.851Z,59.20
2018-11-10T14:00:11.936Z,59.23
2018-11-10T14:02:40.871Z,60.76
2018-11-10T14:05:09.828Z,59.62
2018-11-10T14:07:40.068Z,59.70
2018-11-10T14:10:10.670Z,60.62
2018-11-10T14:12:40.103Z,60.52
2018-11-10T14:15:10.555Z,61.88
2018-11-10T14:17:39.894Z,61.95
2018-11-10T14:20:11.261Z,62.11
2018-11-10T14:22:40.115Z,62.15
2018-11-10T14:25:12.458Z,62.96
2018-11-10T14:27:42.147Z,63.80
2018-11-10T14:30:13.128Z,64.65
2018-11-10T14:32:42.630Z,63.69
2018-11-10T14:35:12.100Z,65.41
2018-11-10T14:37:41.135Z,65.70
2018-11-10T14:40:12.392Z,67.24
2018-11-10T14:42:42.130Z,68.33
2018-11-10T14:45:12.834Z,69.09
2018-11-10T14:47:42.339Z,69.75
2018-11-10T14:50:12.138Z,70.05
2018-11-10T14:52:41.273Z,70.69
2018-11-10T14:55:10.968Z,71.63
2018-11-10T14:57:39.962Z,72.03
2018-11-10T15:00:17.483Z,72.51
2018-11-10T15:02:46.432Z,72.72
2018-11-10T15:05:15.382Z,73.21
2018-11-10T15:07:44.908Z,73.60
2018-11-10T15:10:15.135Z,74.00
2018-11-10T15:12:44.722Z,74.29
2018-11-10T15:15:14.876Z,74.57
2018-11-10T15:17:44.025Z,75.15
2018-11-10T15:20:15.146Z,75.20
2018-11-10T15:22:44.101Z,74.74
2018-11-10T15:25:14.437Z,75.30
2018-11-10T15:27:43.294Z,75.45
2018-11-10T15:30:15.246Z,75.16
2018-11-10T15:32:45.003Z,75.51
2018-11-10T15:35:15.097Z,75.14
2018-11-10T15:37:45.093Z,75.51
2018-11-10T15:40:17.462Z,75.68
2018-11-10T15:42:46.511Z,75.27
2018-11-10T15:45:17.698Z,75.41
2018-11-10T15:47:46.754Z,75.72
2018-11-10T15:50:16.845Z,75.60
2018-11-10T15:52:45.752Z,75.96
2018-11-10T15:55:16.161Z,76.02
2018-11-10T15:57:45.166Z,76.72
2018-11-10T16:00:18.391Z,76.92
2018-11-10T16:02:47.371Z,76.64
2018-11-10T16:05:17.494Z,76.91
2018-11-10T16:07:46.459Z,77.28
2018-11-10T16:10:15.409Z,77.53
2018-11-10T16:12:44.346Z,77.72
2018-11-10T16:15:14.682Z,77.61
2018-11-10T16:17:43.753Z,77.87
2018-11-10T16:20:15.803Z,77.64
2018-11-10T16:22:46.702Z,77.42
2018-11-10T16:25:15.802Z,77.85
2018-11-10T16:27:45.003Z,77.79
2018-11-10T16:30:16.099Z,78.05
2018-11-10T16:32:45.382Z,78.25
2018-11-10T16:37:48.341Z,78.11
2018-11-10T16:40:18.611Z,78.35
2018-11-10T16:42:48.161Z,78.35
2018-11-10T16:45:18.011Z,77.89
2018-11-10T16:47:47.152Z,78.12
2018-11-10T16:50:16.071Z,78.74
2018-11-10T16:52:46.818Z,78.73
2018-11-10T16:55:15.787Z,78.55
2018-11-10T16:57:46.143Z,78.81
2018-11-10T17:00:16.546Z,79.24
2018-11-10T17:02:45.490Z,79.02
2018-11-10T17:05:15.773Z,79.39
2018-11-10T17:07:44.879Z,78.92
2018-11-10T17:10:15.113Z,79.34
2018-11-10T17:12:45.609Z,80.27
2018-11-10T17:15:14.603Z,80.88
2018-11-10T17:17:43.569Z,81.06
2018-11-10T17:20:17.115Z,80.93
2018-11-10T17:22:46.452Z,81.36
2018-11-10T17:25:15.852Z,83.20
2018-11-10T17:27:45.190Z,84.79
2018-11-10T17:30:20.947Z,85.31
2018-11-10T17:32:49.867Z,84.66
2018-11-10T17:35:18.736Z,83.80
2018-11-10T17:37:47.722Z,84.36
2018-11-10T17:40:16.970Z,84.35
2018-11-10T17:42:45.842Z,84.46
2018-11-10T17:45:16.302Z,84.09
2018-11-10T17:47:45.440Z,84.78
2018-11-10T17:50:15.651Z,85.03
2018-11-10T17:52:44.809Z,84.58
2018-11-10T17:55:14.883Z,84.41
2018-11-10T17:57:45.628Z,84.81
2018-11-10T18:00:14.705Z,83.99
2018-11-10T18:02:43.634Z,84.11
2018-11-10T18:05:13.995Z,84.33
2018-11-10T18:07:44.503Z,84.00
2018-11-10T18:10:15.154Z,83.41
2018-11-10T18:12:45.072Z,83.18
2018-11-10T18:15:14.698Z,84.08
2018-11-10T18:17:43.896Z,83.64
2018-11-10T18:20:14.258Z,84.08
2018-11-10T18:22:45.152Z,84.35
2018-11-10T18:25:14.121Z,83.32
2018-11-10T18:27:43.163Z,83.10
2018-11-10T18:30:13.838Z,83.88
2018-11-10T18:32:42.962Z,83.77
2018-11-10T18:35:12.553Z,83.40
2018-11-10T18:37:42.122Z,83.53
2018-11-10T18:40:11.221Z,84.06
2018-11-10T18:42:40.139Z,85.00
2018-11-10T18:45:10.255Z,84.21
2018-11-10T18:47:39.730Z,83.94
2018-11-10T18:50:11.865Z,83.94
2018-11-10T18:52:40.936Z,84.19
2018-11-10T18:55:10.047Z,83.74
2018-11-10T18:57:39.286Z,84.90
2018-11-10T19:00:12.374Z,85.81
2018-11-10T19:02:41.510Z,86.12
2018-11-10T19:05:12.086Z,86.31
2018-11-10T19:07:40.990Z,86.34
2018-11-10T19:10:11.910Z,85.43
2018-11-10T19:12:41.453Z,84.95
2018-11-10T19:15:12.687Z,85.58
2018-11-10T19:17:41.830Z,85.37
2018-11-10T19:20:11.612Z,84.70
2018-11-10T19:22:40.793Z,84.76
2018-11-10T19:25:11.111Z,84.13
2018-11-10T19:27:40.191Z,85.49
2018-11-10T19:30:13.335Z,86.60
2018-11-10T19:32:42.622Z,85.65
2018-11-10T19:35:12.280Z,84.82
2018-11-10T19:37:41.245Z,84.49
2018-11-10T19:40:12.776Z,84.25
2018-11-10T19:42:42.629Z,84.37
2018-11-10T19:45:11.858Z,84.14
2018-11-10T19:47:42.025Z,84.04
2018-11-10T19:50:11.802Z,84.26
2018-11-10T19:52:40.887Z,84.19
2018-11-10T19:55:13.625Z,83.80
2018-11-10T19:57:42.725Z,83.56
2018-11-10T20:00:16.698Z,84.57
2018-11-10T20:02:45.827Z,84.47
2018-11-10T20:05:14.764Z,84.35
2018-11-10T20:10:03.487Z,84.69
2018-11-10T20:12:32.412Z,84.83
2018-11-10T20:15:06.794Z,84.91
2018-11-10T20:17:35.647Z,85.46
2018-11-10T20:20:04.670Z,85.70
2018-11-10T20:22:34.978Z,85.66
2018-11-10T20:25:04.040Z,86.29
2018-11-10T20:27:33.003Z,85.72
2018-11-10T20:30:03.295Z,85.04
2018-11-10T20:32:32.289Z,86.00
2018-11-10T20:35:01.199Z,86.75
2018-11-10T20:37:31.382Z,86.19
2018-11-10T20:40:00.226Z,86.49
2018-11-10T20:42:29.209Z,85.98
2018-11-10T20:44:58.233Z,85.50
2018-11-10T20:47:27.090Z,85.13
2018-11-10T20:49:55.995Z,85.11
2018-11-10T20:52:24.976Z,85.37
2018-11-10T20:54:53.988Z,87.08
2018-11-10T20:57:22.924Z,86.56
2018-11-10T20:59:52.002Z,86.32
2018-11-10T21:02:21.008Z,87.26
2018-11-10T21:04:49.962Z,87.84
2018-11-10T21:07:18.827Z,87.90
2018-11-10T21:09:47.791Z,87.79
2018-11-10T21:12:17.890Z,86.99
2018-11-10T21:14:46.854Z,88.21
2018-11-10T21:17:17.255Z,88.42
2018-11-10T21:19:46.147Z,88.47
2018-11-10T21:22:15.084Z,89.52
2018-11-10T21:24:44.337Z,90.49
2018-11-10T21:27:13.223Z,90.01
2018-11-10T21:29:42.236Z,90.26
2018-11-10T21:32:11.105Z,90.20
2018-11-10T21:34:39.971Z,90.12
2018-11-10T21:37:08.944Z,90.42
2018-11-10T21:39:37.850Z,90.26
2018-11-10T21:42:06.337Z,89.51
2018-11-10T21:44:35.295Z,89.05
2018-11-10T21:47:04.235Z,89.13
2018-11-10T21:49:33.349Z,88.83
2018-11-10T21:52:02.152Z,88.32
2018-11-10T21:54:31.057Z,88.16
2018-11-10T21:56:59.978Z,87.72
2018-11-10T21:59:28.852Z,86.40
2018-11-10T22:01:57.763Z,86.15
2018-11-10T22:04:26.684Z,86.64
2018-11-10T22:06:55.628Z,85.94
2018-11-10T22:09:24.649Z,85.91
2018-11-10T22:11:53.500Z,86.38
2018-11-10T22:14:22.382Z,86.29
2018-11-10T22:16:51.286Z,86.07
2018-11-10T22:19:20.291Z,86.28
2018-11-10T22:21:49.215Z,86.14
2018-11-10T22:24:18.166Z,85.82
2018-11-10T22:26:47.090Z,85.93
2018-11-10T22:29:16.024Z,85.77
2018-11-10T22:31:44.914Z,85.86
2018-11-10T22:34:14.278Z,86.70
2018-11-10T22:36:43.246Z,87.67
2018-11-10T22:39:12.241Z,87.58
2018-11-10T22:41:41.098Z,87.61
2018-11-10T22:44:10.044Z,87.70
2018-11-10T22:46:38.978Z,87.15
2018-11-10T22:49:07.888Z,86.77
2018-11-10T22:51:36.870Z,87.35
2018-11-10T22:54:05.920Z,86.54
2018-11-10T22:56:34.818Z,86.52
2018-11-10T22:59:03.816Z,88.19
2018-11-10T23:01:33.818Z,88.32
2018-11-10T23:04:02.938Z,88.73
2018-11-10T23:06:31.810Z,88.16
2018-11-10T23:09:00.762Z,87.64
2018-11-10T23:11:29.686Z,87.50
2018-11-10T23:13:58.645Z,87.55
2018-11-10T23:16:27.554Z,87.54
2018-11-10T23:18:58.033Z,89.75
2018-11-10T23:21:27.211Z,88.85
2018-11-10T23:23:56.125Z,90.36
2018-11-10T23:26:25.107Z,90.47
2018-11-10T23:28:54.028Z,89.32
2018-11-10T23:31:22.930Z,89.11
2018-11-10T23:33:51.869Z,89.05
2018-11-10T23:36:20.783Z,88.55
2018-11-10T23:38:49.658Z,88.25
2018-11-10T23:41:18.615Z,87.76
2018-11-10T23:43:47.509Z,86.88
2018-11-10T23:46:16.327Z,86.42
2018-11-10T23:48:46.541Z,86.52
2018-11-10T23:51:15.515Z,86.51
2018-11-10T23:53:44.348Z,87.46
2018-11-10T23:56:13.270Z,87.99
2018-11-10T23:58:42.117Z,88.17
